Time;durP1;ratioP1;P1;durP2;ratioP2;P2;SDS_P1;SDS_P2;PMS_P1;PMS_P2;Temp;Humidity;BMP_temperature;BMP_pressure;BME280_temperature;BME280_humidity;BME280_pressure;Samples;Min_cycle;Max_cycle;Signal;HPM_P1;HPM_P2
2021/08/24 00:01:52;;;;;;;5.00;1.40;;;12.10;99.90;;;;;;5013351;28;20028;-39
2021/08/24 00:04:18;;;;;;;1.98;1.17;;;12.10;99.90;;;;;;5012948;28;20049;-39
2021/08/24 00:06:43;;;;;;;3.58;1.50;;;12.10;99.90;;;;;;5012665;28;20033;-42
2021/08/24 00:09:09;;;;;;;2.63;1.52;;;12.10;99.90;;;;;;5012617;28;20072;-40
2021/08/24 00:11:34;;;;;;;1.77;1.10;;;12.10;99.90;;;;;;5013240;28;20072;-42
2021/08/24 00:14:02;;;;;;;1.80;1.20;;;12.10;99.90;;;;;;5011706;28;20072;-40
2021/08/24 00:16:28;;;;;;;6.03;1.60;;;12.00;99.90;;;;;;5013162;28;20040;-40
2021/08/24 00:18:53;;;;;;;2.63;1.27;;;12.00;99.90;;;;;;5012923;28;20029;-42
2021/08/24 00:21:19;;;;;;;3.80;1.52;;;12.00;99.90;;;;;;5012933;28;20108;-41
2021/08/24 00:23:45;;;;;;;2.15;1.13;;;12.00;99.90;;;;;;5012042;28;20052;-41
2021/08/24 00:26:10;;;;;;;5.47;1.63;;;12.00;99.90;;;;;;5012255;28;20040;-42
2021/08/24 00:28:36;;;;;;;2.55;1.20;;;12.10;99.90;;;;;;5013050;28;20018;-44
2021/08/24 00:31:01;;;;;;;1.77;1.35;;;12.20;99.90;;;;;;5012786;28;20053;-40
2021/08/24 00:33:27;;;;;;;4.40;1.23;;;12.20;99.90;;;;;;5012750;28;20490;-42
2021/08/24 00:35:53;;;;;;;3.70;1.27;;;12.20;99.90;;;;;;5013005;28;20030;-40
2021/08/24 00:38:22;;;;;;;1.58;1.05;;;12.20;99.90;;;;;;5011924;28;20033;-40
2021/08/24 00:41:02;;;;;;;1.17;0.77;;;12.20;99.90;;;;;;5013137;28;20350;-40
2021/08/24 00:43:30;;;;;;;2.35;1.55;;;12.10;99.90;;;;;;5012874;28;20108;-40
2021/08/24 00:46:07;;;;;;;2.83;1.17;;;12.10;99.90;;;;;;5012681;28;20022;-38
2021/08/24 00:48:33;;;;;;;1.35;1.17;;;12.00;99.90;;;;;;5012819;28;20193;-39
2021/08/24 00:50:59;;;;;;;5.13;1.35;;;12.00;99.90;;;;;;5012738;28;20101;-40
2021/08/24 00:53:30;;;;;;;3.42;1.40;;;11.90;99.90;;;;;;5011787;28;20030;-39
2021/08/24 00:55:58;;;;;;;1.67;1.10;;;11.80;99.90;;;;;;5012665;28;20034;-39
2021/08/24 00:58:23;;;;;;;4.40;1.08;;;11.80;99.90;;;;;;5012587;28;20018;-40
2021/08/24 01:00:49;;;;;;;2.45;1.40;;;11.70;99.90;;;;;;5012719;28;20025;-40
2021/08/24 01:03:18;;;;;;;2.25;1.40;;;11.60;99.90;;;;;;5012498;28;20018;-39
2021/08/24 01:05:46;;;;;;;4.03;1.30;;;11.50;99.90;;;;;;5012732;28;20113;-39
2021/08/24 01:08:44;;;;;;;2.78;1.40;;;11.50;99.90;;;;;;5011540;28;20473;-40
2021/08/24 01:11:39;;;;;;;2.55;1.23;;;11.30;99.90;;;;;;5012439;28;20022;-40
2021/08/24 01:14:31;;;;;;;3.67;1.33;;;11.30;99.90;;;;;;4993459;28;20422;-42
2021/08/24 01:17:11;;;;;;;2.63;1.38;;;11.20;99.90;;;;;;5012560;28;20037;-40
2021/08/24 01:19:46;;;;;;;2.38;1.33;;;11.10;99.90;;;;;;5012550;28;20129;-40
2021/08/24 01:22:49;;;;;;;2.63;1.27;;;11.10;99.90;;;;;;5011462;28;20193;-40
2021/08/24 01:25:20;;;;;;;3.40;1.60;;;11.10;99.90;;;;;;5012391;28;20026;-40
2021/08/24 01:28:02;;;;;;;2.72;1.42;;;11.10;99.90;;;;;;5012302;28;20029;-39
2021/08/24 01:30:58;;;;;;;2.22;1.45;;;11.10;99.90;;;;;;5012441;28;20014;-47
2021/08/24 01:33:31;;;;;;;3.05;1.50;;;11.10;99.90;;;;;;5012377;28;20036;-40
2021/08/24 01:36:08;;;;;;;3.13;1.70;;;11.10;99.90;;;;;;5012491;28;20512;-42
2021/08/24 01:38:43;;;;;;;2.75;1.50;;;11.10;99.90;;;;;;5015053;28;20029;-39
2021/08/24 01:41:21;;;;;;;3.15;1.50;;;11.10;99.90;;;;;;5015819;28;20075;-39
2021/08/24 01:43:58;;;;;;;3.33;1.48;;;11.10;99.90;;;;;;5015945;28;20061;-40
2021/08/24 01:46:45;;;;;;;5.28;1.52;;;11.10;99.90;;;;;;5015493;28;20030;-40
2021/08/24 01:49:13;;;;;;;2.75;1.60;;;11.10;99.90;;;;;;5015732;28;20053;-39
2021/08/24 01:51:44;;;;;;;2.40;1.40;;;11.00;99.90;;;;;;5015526;28;20109;-41
2021/08/24 01:54:47;;;;;;;2.72;1.33;;;11.00;99.90;;;;;;5015618;28;20026;-40
2021/08/24 01:57:38;;;;;;;3.00;1.45;;;11.00;99.90;;;;;;5013287;28;20036;-43
2021/08/24 02:00:10;;;;;;;2.83;1.45;;;11.00;99.90;;;;;;5008484;28;20121;-40
2021/08/24 02:03:00;;;;;;;3.45;1.30;;;11.00;99.90;;;;;;5015556;28;20563;-40
2021/08/24 02:05:34;;;;;;;4.03;2.17;;;10.90;99.90;;;;;;5015409;28;20412;-42
2021/08/24 02:08:06;;;;;;;2.03;1.10;;;10.90;99.90;;;;;;5014524;28;20170;-40
2021/08/24 02:10:34;;;;;;;4.20;1.40;;;10.90;99.90;;;;;;5015381;28;20021;-40
2021/08/24 02:13:00;;;;;;;2.22;1.10;;;10.80;99.90;;;;;;5015440;28;20028;-40
2021/08/24 02:15:33;;;;;;;3.40;1.20;;;10.80;99.90;;;;;;5015303;28;20034;-40
2021/08/24 02:17:59;;;;;;;3.42;1.42;;;10.70;99.90;;;;;;5015234;28;20034;-39
2021/08/24 02:20:31;;;;;;;2.45;1.25;;;10.70;99.90;;;;;;5015144;28;20545;-40
2021/08/24 02:23:01;;;;;;;3.08;1.52;;;10.70;99.90;;;;;;5014308;28;20033;-44
2021/08/24 02:25:32;;;;;;;2.13;1.10;;;10.70;99.90;;;;;;5015085;28;20109;-42
2021/08/24 02:28:18;;;;;;;3.65;1.48;;;10.70;99.90;;;;;;5015052;28;20381;-42
2021/08/24 02:30:52;;;;;;;4.35;1.58;;;10.70;99.90;;;;;;5015116;28;20488;-43
2021/08/24 02:33:20;;;;;;;2.67;1.38;;;10.70;99.90;;;;;;5014928;28;20022;-43
2021/08/24 02:35:53;;;;;;;3.60;1.27;;;10.70;99.90;;;;;;5014958;28;20034;-42
2021/08/24 02:38:34;;;;;;;2.58;1.13;;;10.70;99.90;;;;;;5014015;28;20049;-44
2021/08/24 02:41:17;;;;;;;3.85;1.58;;;10.70;99.90;;;;;;5014877;28;20399;-40
2021/08/24 02:43:58;;;;;;;3.28;1.83;;;10.70;99.90;;;;;;5014768;28;20037;-42
2021/08/24 02:46:31;;;;;;;2.60;1.50;;;10.70;99.90;;;;;;5014578;28;20036;-42
2021/08/24 02:49:03;;;;;;;2.55;1.40;;;10.70;99.90;;;;;;5013945;28;20037;-44
2021/08/24 02:51:30;;;;;;;4.07;1.77;;;10.70;99.90;;;;;;5014532;28;20076;-41
2021/08/24 02:54:24;;;;;;;2.08;1.38;;;10.80;99.90;;;;;;5013682;28;20025;-41
2021/08/24 02:56:50;;;;;;;3.50;1.48;;;10.80;99.90;;;;;;5014110;28;20556;-46
2021/08/24 02:59:15;;;;;;;3.53;1.63;;;10.80;99.90;;;;;;5014418;28;20029;-41
2021/08/24 03:01:41;;;;;;;3.97;1.70;;;10.80;99.90;;;;;;5014351;28;20029;-41
2021/08/24 03:04:09;;;;;;;2.53;1.40;;;10.80;99.90;;;;;;5014255;28;20053;-44
2021/08/24 03:06:38;;;;;;;6.65;1.98;;;10.90;99.90;;;;;;5014201;28;20038;-40
2021/08/24 03:09:04;;;;;;;3.45;1.60;;;10.90;99.90;;;;;;5013944;28;20430;-40
2021/08/24 03:11:37;;;;;;;4.03;1.40;;;11.00;99.90;;;;;;5014218;28;20061;-40
2021/08/24 03:14:12;;;;;;;5.22;1.80;;;11.00;99.90;;;;;;5013977;28;20030;-40
2021/08/24 03:16:45;;;;;;;4.35;1.83;;;11.00;99.90;;;;;;5014072;28;20104;-44
2021/08/24 03:19:22;;;;;;;3.13;1.40;;;11.00;99.90;;;;;;5014130;28;20164;-43
2021/08/24 03:21:49;;;;;;;4.07;1.95;;;11.10;99.90;;;;;;5013085;28;20066;-42
2021/08/24 03:24:17;;;;;;;5.53;1.42;;;11.10;99.90;;;;;;5013989;28;20022;-39
2021/08/24 03:26:45;;;;;;;2.97;1.58;;;11.20;99.90;;;;;;5013741;28;20474;-41
2021/08/24 03:29:18;;;;;;;6.40;1.63;;;11.20;99.90;;;;;;5013962;28;20389;-42
2021/08/24 03:31:47;;;;;;;2.92;1.38;;;11.20;99.90;;;;;;5013970;28;20022;-42
2021/08/24 03:34:12;;;;;;;4.90;2.00;;;11.10;99.90;;;;;;5013867;28;20014;-40
2021/08/24 03:36:38;;;;;;;4.10;1.60;;;11.20;99.90;;;;;;5013169;28;20029;-42
2021/08/24 03:39:04;;;;;;;4.13;1.50;;;11.20;99.90;;;;;;5013399;28;20034;-44
2021/08/24 03:41:30;;;;;;;4.68;1.65;;;11.20;99.90;;;;;;5013700;28;20110;-41
2021/08/24 03:43:55;;;;;;;3.35;1.50;;;11.20;99.90;;;;;;5013724;28;20440;-39
2021/08/24 03:46:21;;;;;;;6.03;1.15;;;11.30;99.90;;;;;;5013515;28;20045;-39
2021/08/24 03:48:46;;;;;;;3.88;1.75;;;11.30;99.90;;;;;;5013634;28;20026;-41
2021/08/24 03:51:12;;;;;;;2.38;1.50;;;11.30;99.90;;;;;;5013533;28;20539;-42
2021/08/24 03:53:37;;;;;;;7.65;2.08;;;11.40;99.90;;;;;;5012444;28;20101;-47
2021/08/24 03:56:07;;;;;;;3.17;1.52;;;11.40;99.90;;;;;;5013530;28;20116;-41
2021/08/24 03:58:34;;;;;;;5.82;1.60;;;11.50;99.90;;;;;;5013398;28;20389;-40
2021/08/24 04:00:59;;;;;;;4.07;1.52;;;11.50;99.90;;;;;;5012468;28;20030;-42
2021/08/24 04:03:26;;;;;;;3.33;1.40;;;11.50;99.90;;;;;;5013226;28;20379;-42
2021/08/24 04:05:59;;;;;;;2.53;1.25;;;11.60;99.90;;;;;;5013343;28;20030;-42
2021/08/24 04:08:25;;;;;;;4.35;1.60;;;11.50;99.90;;;;;;5011810;28;20022;-42
2021/08/24 04:10:51;;;;;;;2.85;1.52;;;11.50;99.90;;;;;;5013277;28;20063;-41
2021/08/24 04:13:17;;;;;;;3.97;1.35;;;11.50;99.90;;;;;;5013002;28;20034;-46
2021/08/24 04:15:42;;;;;;;3.33;1.33;;;11.50;99.90;;;;;;5013124;28;20026;-40
2021/08/24 04:18:08;;;;;;;5.60;1.60;;;11.60;99.90;;;;;;5012975;28;20040;-39
2021/08/24 04:20:33;;;;;;;2.58;1.20;;;11.70;99.90;;;;;;5012773;28;20033;-40
2021/08/24 04:22:59;;;;;;;3.83;1.52;;;11.70;99.90;;;;;;5012273;28;20390;-42
2021/08/24 04:25:25;;;;;;;3.13;1.60;;;11.70;99.90;;;;;;5012979;28;20045;-43
2021/08/24 04:27:50;;;;;;;1.85;1.08;;;11.70;99.90;;;;;;5012899;28;20038;-40
2021/08/24 04:30:16;;;;;;;1.80;1.20;;;11.80;99.90;;;;;;5025180;28;20021;-42
2021/08/24 04:32:45;;;;;;;5.30;1.65;;;11.80;99.90;;;;;;5032054;28;20056;-43
2021/08/24 04:35:12;;;;;;;5.13;1.10;;;11.80;99.90;;;;;;5032433;28;20041;-40
2021/08/24 04:37:37;;;;;;;3.72;1.20;;;11.90;99.90;;;;;;5031190;28;20108;-43
2021/08/24 04:40:03;;;;;;;1.48;1.05;;;12.00;99.90;;;;;;5032498;28;20417;-40
2021/08/24 04:42:29;;;;;;;5.07;1.40;;;12.10;99.90;;;;;;5032245;28;20033;-40
2021/08/24 04:44:56;;;;;;;1.85;1.35;;;12.20;99.90;;;;;;5032382;28;20039;-45
2021/08/24 04:47:22;;;;;;;6.80;1.40;;;12.30;99.90;;;;;;5032209;28;20025;-40
2021/08/24 04:49:47;;;;;;;6.07;1.75;;;12.40;99.90;;;;;;5032265;28;20025;-42
2021/08/24 04:52:13;;;;;;;3.72;1.60;;;12.50;99.90;;;;;;5031120;28;20068;-40
2021/08/24 04:54:38;;;;;;;3.63;1.40;;;12.80;99.90;;;;;;5032011;28;20474;-40
2021/08/24 04:57:05;;;;;;;3.13;1.35;;;13.50;99.90;;;;;;5032136;28;20053;-42
2021/08/24 04:59:31;;;;;;;3.55;1.50;;;14.20;99.90;;;;;;5032393;28;20025;-42
2021/08/24 05:01:57;;;;;;;1.95;1.00;;;14.80;99.90;;;;;;5032400;28;20095;-43
2021/08/24 05:04:23;;;;;;;2.08;1.10;;;15.30;99.90;;;;;;5032241;28;20525;-40
2021/08/24 05:06:50;;;;;;;1.50;1.10;;;15.40;99.90;;;;;;5031147;28;20077;-41
2021/08/24 05:09:16;;;;;;;2.20;1.20;;;15.60;99.90;;;;;;5029420;28;20028;-42
2021/08/24 05:11:41;;;;;;;1.50;1.20;;;15.90;99.90;;;;;;5032755;28;20025;-40
2021/08/24 05:14:07;;;;;;;4.32;1.00;;;16.40;99.90;;;;;;5035990;28;20041;-40
2021/08/24 05:16:32;;;;;;;2.28;1.33;;;16.90;99.90;;;;;;5023827;28;20362;-42
2021/08/24 05:18:58;;;;;;;3.30;1.67;;;17.30;99.90;;;;;;4994753;28;20068;-41
2021/08/24 05:21:23;;;;;;;4.32;1.20;;;17.70;99.90;;;;;;4994745;28;20030;-43
2021/08/24 05:23:49;;;;;;;1.55;1.10;;;18.10;99.90;;;;;;4993934;28;20085;-42
2021/08/24 05:26:17;;;;;;;2.10;1.27;;;18.60;99.90;;;;;;4994876;28;20023;-41
2021/08/24 05:28:43;;;;;;;2.22;1.00;;;18.90;99.90;;;;;;4994674;28;20113;-44
2021/08/24 05:31:08;;;;;;;2.38;1.30;;;19.30;99.90;;;;;;4994731;28;20443;-41
2021/08/24 05:33:34;;;;;;;3.03;1.45;;;19.50;99.90;;;;;;4994562;28;20102;-43
2021/08/24 05:36:00;;;;;;;2.42;1.58;;;19.90;99.90;;;;;;4994734;28;20026;-41
2021/08/24 05:38:28;;;;;;;4.15;1.13;;;20.20;99.90;;;;;;4993725;28;20030;-43
2021/08/24 05:40:55;;;;;;;1.17;1.00;;;20.70;99.90;;;;;;4994762;28;20497;-41
2021/08/24 05:43:21;;;;;;;1.88;1.27;;;21.00;99.90;;;;;;4994668;28;20062;-41
2021/08/24 05:45:54;;;;;;;2.40;0.90;;;21.30;99.90;;;;;;4994366;28;20030;-43
2021/08/24 05:48:20;;;;;;;2.17;1.40;;;21.70;99.90;;;;;;4994442;28;20026;-43
2021/08/24 05:50:45;;;;;;;3.10;1.15;;;21.70;99.90;;;;;;4994383;28;20026;-41
2021/08/24 05:53:11;;;;;;;1.20;1.00;;;21.80;99.90;;;;;;4993675;28;20390;-41
2021/08/24 05:55:38;;;;;;;3.22;1.17;;;22.00;99.90;;;;;;4994277;28;20110;-41
2021/08/24 05:58:03;;;;;;;3.80;1.30;;;22.40;99.90;;;;;;4994408;28;20045;-41
2021/08/24 06:00:29;;;;;;;2.15;1.20;;;22.90;99.90;;;;;;4994333;28;20474;-41
2021/08/24 06:02:54;;;;;;;2.15;1.33;;;23.10;99.90;;;;;;4994065;28;20153;-44
2021/08/24 06:05:20;;;;;;;1.38;1.00;;;23.30;99.50;;;;;;4965750;28;20054;-43
2021/08/24 06:07:45;;;;;;;2.17;1.27;;;23.50;96.30;;;;;;4965663;28;20038;-41
2021/08/24 06:10:11;;;;;;;1.83;1.10;;;23.70;97.70;;;;;;4994380;28;20018;-41
2021/08/24 06:12:37;;;;;;;3.55;1.30;;;24.10;97.80;;;;;;4994107;28;20121;-41
2021/08/24 06:15:03;;;;;;;2.85;1.10;;;24.40;95.40;;;;;;4994128;28;20054;-44
2021/08/24 06:17:29;;;;;;;1.80;1.45;;;24.60;92.70;;;;;;4993955;28;20113;-43
2021/08/24 06:19:54;;;;;;;2.03;1.10;;;24.20;80.60;;;;;;4993942;28;20135;-41
2021/08/24 06:22:20;;;;;;;2.17;1.33;;;24.40;89.50;;;;;;5006845;28;20026;-41
2021/08/24 06:24:45;;;;;;;2.97;1.20;;;24.60;88.00;;;;;;5014363;28;20057;-44
2021/08/24 06:27:11;;;;;;;1.50;1.40;;;24.80;86.10;;;;;;5015118;28;20032;-41
2021/08/24 06:29:36;;;;;;;1.52;1.35;;;25.20;84.80;;;;;;5013358;28;20196;-40
2021/08/24 06:32:05;;;;;;;1.80;1.40;;;25.40;72.50;;;;;;5012884;28;20026;-46
2021/08/24 06:34:33;;;;;;;3.60;1.40;;;25.80;65.60;;;;;;5013510;28;20539;-48
2021/08/24 06:36:58;;;;;;;3.60;1.60;;;25.80;70.90;;;;;;5012664;28;20033;-47
2021/08/24 06:39:24;;;;;;;1.90;1.20;;;25.90;73.60;;;;;;5013472;28;20021;-48
2021/08/24 06:41:50;;;;;;;2.20;1.33;;;26.10;65.00;;;;;;5013357;28;20030;-46
2021/08/24 06:44:15;;;;;;;3.03;1.55;;;26.10;58.20;;;;;;5013566;28;20448;-44
2021/08/24 06:46:41;;;;;;;2.60;1.30;;;26.10;60.30;;;;;;5013040;28;20118;-46
2021/08/24 06:49:07;;;;;;;3.47;1.83;;;26.20;63.90;;;;;;5013286;28;20044;-50
2021/08/24 06:51:33;;;;;;;2.42;1.23;;;26.60;57.10;;;;;;5012585;28;20026;-49
2021/08/24 06:54:00;;;;;;;3.80;1.23;;;26.70;62.20;;;;;;5012861;28;20030;-47
2021/08/24 06:56:25;;;;;;;3.05;1.25;;;27.30;60.90;;;;;;5013296;28;20462;-46
2021/08/24 06:58:51;;;;;;;2.60;1.40;;;27.20;59.30;;;;;;5004192;28;20022;-50
2021/08/24 07:01:19;;;;;;;3.10;1.40;;;27.20;56.80;;;;;;4993561;28;20384;-46
2021/08/24 07:03:44;;;;;;;1.95;1.38;;;27.40;53.80;;;;;;4993207;28;20046;-48
2021/08/24 07:06:10;;;;;;;2.67;1.75;;;27.10;53.30;;;;;;4993443;28;20393;-48
2021/08/24 07:08:36;;;;;;;3.90;1.55;;;27.00;53.80;;;;;;4992569;28;20038;-45
2021/08/24 07:11:01;;;;;;;1.98;1.23;;;27.30;54.30;;;;;;4993330;28;20532;-43
2021/08/24 07:13:30;;;;;;;2.08;1.35;;;27.30;53.20;;;;;;4993353;28;20030;-46
2021/08/24 07:15:56;;;;;;;2.47;1.58;;;27.80;54.20;;;;;;4993160;28;20030;-50
2021/08/24 07:18:22;;;;;;;2.03;1.50;;;28.10;51.10;;;;;;4993181;28;20037;-46
2021/08/24 07:20:53;;;;;;;2.53;1.55;;;28.10;49.20;;;;;;4993208;28;20449;-46
2021/08/24 07:23:19;;;;;;;4.32;1.65;;;27.70;41.00;;;;;;4992370;28;20026;-46
2021/08/24 07:25:45;;;;;;;2.03;1.40;;;27.30;42.40;;;;;;4992930;28;20037;-44
2021/08/24 07:28:11;;;;;;;3.15;1.83;;;27.10;46.60;;;;;;4993026;28;20030;-43
2021/08/24 07:30:42;;;;;;;1.80;1.27;;;26.90;48.00;;;;;;4992797;28;20069;-47
2021/08/24 07:33:09;;;;;;;4.45;1.60;;;27.30;43.50;;;;;;4992961;28;20570;-47
2021/08/24 07:35:35;;;;;;;1.90;1.40;;;27.70;47.80;;;;;;4992700;28;20033;-44
2021/08/24 07:38:01;;;;;;;4.95;1.52;;;28.40;42.70;;;;;;4991800;28;20034;-47
2021/08/24 07:40:28;;;;;;;2.95;1.42;;;28.20;39.50;;;;;;4992862;28;20026;-42
2021/08/24 07:42:53;;;;;;;3.22;1.60;;;28.10;38.80;;;;;;4991923;28;20030;-43
2021/08/24 07:45:19;;;;;;;3.65;1.70;;;27.90;41.00;;;;;;4992873;28;20029;-45
2021/08/24 07:47:45;;;;;;;2.10;1.63;;;27.80;42.50;;;;;;4992571;28;20407;-45
2021/08/24 07:50:11;;;;;;;2.28;1.70;;;27.90;42.40;;;;;;4992603;28;20032;-46
2021/08/24 07:52:37;;;;;;;4.03;1.65;;;27.60;40.50;;;;;;4991572;28;20572;-46
2021/08/24 07:55:04;;;;;;;5.65;2.13;;;27.60;40.80;;;;;;4992441;28;20090;-45
2021/08/24 07:57:29;;;;;;;4.05;1.90;;;28.10;39.80;;;;;;4992594;28;20023;-45
2021/08/24 07:59:55;;;;;;;2.30;1.40;;;27.90;36.00;;;;;;4992327;28;20031;-47
2021/08/24 08:02:20;;;;;;;2.35;1.23;;;28.10;36.80;;;;;;4992439;28;20109;-45
2021/08/24 08:04:46;;;;;;;2.55;1.80;;;28.30;38.20;;;;;;4992184;28;20552;-45
2021/08/24 08:07:13;;;;;;;2.17;1.58;;;28.00;36.80;;;;;;5002467;28;20397;-46
2021/08/24 08:09:39;;;;;;;3.95;1.52;;;28.00;37.00;;;;;;5011843;28;20068;-43
2021/08/24 08:12:05;;;;;;;2.72;1.63;;;27.80;36.40;;;;;;5011492;28;20022;-43
2021/08/24 08:14:31;;;;;;;2.97;1.70;;;27.50;36.50;;;;;;5010444;28;20022;-47
2021/08/24 08:16:56;;;;;;;2.35;1.30;;;27.70;36.00;;;;;;5011825;28;20268;-45
2021/08/24 08:19:22;;;;;;;1.90;1.52;;;27.60;36.30;;;;;;5011876;28;20382;-45
2021/08/24 08:21:47;;;;;;;2.63;1.77;;;28.00;36.00;;;;;;5010574;28;20049;-47
2021/08/24 08:24:13;;;;;;;2.53;1.40;;;27.90;34.80;;;;;;5011816;28;20038;-46
2021/08/24 08:26:38;;;;;;;2.47;1.30;;;28.00;34.50;;;;;;5011681;28;20494;-48
2021/08/24 08:29:09;;;;;;;2.70;2.13;;;28.00;34.30;;;;;;5011519;28;20088;-47
2021/08/24 08:31:36;;;;;;;1.65;1.40;;;27.90;33.50;;;;;;5011796;28;20132;-45
2021/08/24 08:34:02;;;;;;;2.13;1.63;;;28.60;34.80;;;;;;5011544;28;20026;-46
2021/08/24 08:36:28;;;;;;;2.85;1.48;;;29.30;31.80;;;;;;5011286;28;20113;-47
2021/08/24 08:38:53;;;;;;;2.70;1.30;;;29.80;30.30;;;;;;5011115;28;20030;-46
2021/08/24 08:41:49;;;;;;;2.40;1.55;;;29.70;28.40;;;;;;5011653;28;20373;-44
2021/08/24 08:44:39;;;;;;;2.17;1.57;;;29.90;28.30;;;;;;5011593;28;20060;-41
2021/08/24 08:47:22;;;;;;;3.50;1.65;;;29.00;29.10;;;;;;5013394;28;20641;-44
2021/08/24 08:49:55;;;;;;;2.00;1.50;;;28.70;29.40;;;;;;5015460;28;20014;-44
2021/08/24 08:52:39;;;;;;;4.15;1.50;;;29.00;29.70;;;;;;5014770;28;20108;-43
2021/08/24 08:55:39;;;;;;;1.95;1.50;;;29.50;29.30;;;;;;5015568;28;20481;-45
2021/08/24 08:58:28;;;;;;;1.67;1.20;;;29.90;26.20;;;;;;5015429;28;20045;-43
2021/08/24 09:00:59;;;;;;;2.58;1.50;;;30.10;27.90;;;;;;5015346;28;20390;-41
2021/08/24 09:03:32;;;;;;;2.15;1.33;;;30.10;25.60;;;;;;5015230;28;20046;-46
2021/08/24 09:05:58;;;;;;;3.25;1.63;;;29.40;24.60;;;;;;5015324;28;20033;-43
2021/08/24 09:08:25;;;;;;;4.03;1.52;;;28.70;26.50;;;;;;5014449;28;20117;-45
2021/08/24 09:10:54;;;;;;;4.70;1.50;;;28.40;27.30;;;;;;5015040;28;20021;-42
2021/08/24 09:13:37;;;;;;;2.85;1.60;;;28.40;28.00;;;;;;5015186;28;20026;-43
2021/08/24 09:16:14;;;;;;;2.13;1.42;;;28.80;26.80;;;;;;5014948;28;20107;-44
2021/08/24 09:18:53;;;;;;;2.65;1.63;;;29.60;26.20;;;;;;5015143;28;20028;-40
2021/08/24 09:21:40;;;;;;;2.60;1.52;;;29.50;25.70;;;;;;5014847;28;20026;-48
2021/08/24 09:24:28;;;;;;;2.40;1.75;;;29.60;24.60;;;;;;5014710;28;20116;-43
2021/08/24 09:27:19;;;;;;;2.33;1.92;;;29.30;23.80;;;;;;5014741;28;20025;-44
2021/08/24 09:29:46;;;;;;;3.78;1.85;;;29.00;24.90;;;;;;5014860;28;20025;-46
2021/08/24 09:32:18;;;;;;;1.90;1.35;;;28.70;25.30;;;;;;5007055;28;20525;-43
2021/08/24 09:34:45;;;;;;;1.30;1.20;;;28.70;25.50;;;;;;4994993;28;20100;-45
2021/08/24 09:37:23;;;;;;;1.63;1.30;;;28.90;25.60;;;;;;4994164;28;20026;-46
2021/08/24 09:39:51;;;;;;;3.92;1.42;;;29.00;24.80;;;;;;4995043;28;20410;-43
2021/08/24 09:42:42;;;;;;;4.10;2.30;;;29.10;24.70;;;;;;4994790;28;20572;-44
2021/08/24 09:45:20;;;;;;;2.30;1.67;;;29.00;23.90;;;;;;4994786;28;20450;-48
2021/08/24 09:47:50;;;;;;;2.40;1.85;;;28.20;24.00;;;;;;4994635;28;20030;-44
2021/08/24 09:50:17;;;;;;;2.78;1.73;;;28.30;25.60;;;;;;4994735;28;20031;-42
2021/08/24 09:52:49;;;;;;;2.63;1.80;;;27.70;25.70;;;;;;4993836;28;20056;-42
2021/08/24 09:55:21;;;;;;;2.28;1.80;;;27.50;25.30;;;;;;4994589;28;20444;-45
2021/08/24 09:57:52;;;;;;;2.65;1.63;;;26.80;25.10;;;;;;4994684;28;20015;-45
2021/08/24 10:00:29;;;;;;;2.75;2.15;;;26.40;25.90;;;;;;4994572;28;20109;-45
2021/08/24 10:02:58;;;;;;;2.40;1.90;;;26.40;24.80;;;;;;4994417;28;20371;-43
2021/08/24 10:05:34;;;;;;;4.88;1.92;;;26.20;25.30;;;;;;4994236;28;20054;-43
2021/08/24 10:08:26;;;;;;;3.08;1.70;;;25.60;25.90;;;;;;4993470;28;20026;-41
2021/08/24 10:11:20;;;;;;;2.05;1.85;;;24.80;27.10;;;;;;4994377;28;20070;-41
2021/08/24 10:13:46;;;;;;;3.90;1.95;;;24.10;28.20;;;;;;4994143;28;20420;-43
2021/08/24 10:16:26;;;;;;;3.20;1.80;;;23.70;29.10;;;;;;4994108;28;20387;-43
2021/08/24 10:19:18;;;;;;;2.42;1.80;;;23.20;31.00;;;;;;4994306;28;20030;-44
2021/08/24 10:22:01;;;;;;;3.55;1.98;;;23.10;31.50;;;;;;4993165;28;20038;-40
2021/08/24 10:24:31;;;;;;;2.50;1.70;;;22.90;32.20;;;;;;4994094;28;20034;-44
2021/08/24 10:27:01;;;;;;;3.42;1.90;;;22.80;32.40;;;;;;4993990;28;20674;-41
2021/08/24 10:29:32;;;;;;;3.28;1.80;;;22.80;32.70;;;;;;4994082;28;20072;-43
2021/08/24 10:32:03;;;;;;;3.80;2.20;;;22.70;32.70;;;;;;4993945;28;20030;-44
2021/08/24 10:34:44;;;;;;;2.13;1.70;;;22.50;32.90;;;;;;4994046;28;20018;-45
2021/08/24 10:37:15;;;;;;;3.00;2.00;;;22.40;33.40;;;;;;4993046;28;20393;-43
2021/08/24 10:39:40;;;;;;;2.58;1.85;;;22.30;33.80;;;;;;4993695;28;20490;-41
2021/08/24 10:42:23;;;;;;;3.80;2.13;;;22.50;33.80;;;;;;4993659;28;20027;-43
2021/08/24 10:44:54;;;;;;;2.55;1.92;;;22.60;35.60;;;;;;4993211;28;20042;-44
2021/08/24 10:47:43;;;;;;;2.47;1.80;;;22.80;35.80;;;;;;4993546;28;20492;-44
2021/08/24 10:50:25;;;;;;;2.80;1.70;;;22.90;35.50;;;;;;4993589;28;20030;-44
2021/08/24 10:53:08;;;;;;;5.25;1.92;;;22.70;33.80;;;;;;4992638;28;20050;-42
2021/08/24 10:56:06;;;;;;;1.88;1.42;;;22.50;34.00;;;;;;4993683;28;20425;-41
2021/08/24 10:59:18;;;;;;;2.80;1.77;;;22.40;36.00;;;;;;4993391;28;20125;-44
2021/08/24 11:02:01;;;;;;;2.95;1.75;;;22.20;35.20;;;;;;4990953;28;20030;-46
2021/08/24 11:04:52;;;;;;;3.28;2.38;;;22.00;33.80;;;;;;4992939;28;20058;-43
2021/08/24 11:07:27;;;;;;;1.85;1.33;;;21.80;34.30;;;;;;4992319;28;20066;-43
2021/08/24 11:10:29;;;;;;;3.65;2.13;;;21.80;35.20;;;;;;4992683;28;20068;-43
2021/08/24 11:13:04;;;;;;;4.25;2.47;;;21.80;35.10;;;;;;4993339;28;20390;-42
2021/08/24 11:15:59;;;;;;;3.78;2.28;;;21.70;35.80;;;;;;4993187;28;20061;-45
2021/08/24 11:18:48;;;;;;;2.45;1.75;;;21.80;36.00;;;;;;4993015;28;20022;-42
2021/08/24 11:21:36;;;;;;;2.47;1.60;;;21.90;32.90;;;;;;4992841;28;20069;-47
2021/08/24 11:24:12;;;;;;;5.05;2.15;;;21.70;31.00;;;;;;5000190;28;20032;-43
2021/08/24 11:26:58;;;;;;;2.90;1.92;;;21.50;33.20;;;;;;5012254;28;20037;-44
2021/08/24 11:29:26;;;;;;;5.18;2.20;;;21.40;34.50;;;;;;5012027;28;20021;-47
2021/08/24 11:32:07;;;;;;;2.40;1.83;;;21.40;34.20;;;;;;5011976;28;20061;-44
2021/08/24 11:35:07;;;;;;;3.08;2.10;;;21.50;33.60;;;;;;5012610;28;20029;-41
2021/08/24 11:37:40;;;;;;;2.28;1.67;;;21.40;34.60;;;;;;5011608;28;20032;-41
2021/08/24 11:40:11;;;;;;;3.17;2.05;;;21.40;34.30;;;;;;5012496;28;20064;-42
2021/08/24 11:42:42;;;;;;;3.20;2.20;;;21.50;33.60;;;;;;5011160;28;20076;-42
2021/08/24 11:45:25;;;;;;;2.95;2.17;;;21.50;33.90;;;;;;5012208;28;20029;-44
2021/08/24 11:48:06;;;;;;;4.57;2.53;;;21.60;34.00;;;;;;5012333;28;20462;-42
2021/08/24 11:50:51;;;;;;;3.72;1.98;;;21.50;33.30;;;;;;5012188;28;20034;-41
2021/08/24 11:53:30;;;;;;;4.72;3.00;;;21.40;34.40;;;;;;5011399;28;20030;-44
2021/08/24 11:56:01;;;;;;;3.35;2.33;;;21.40;34.50;;;;;;5012234;28;20033;-42
2021/08/24 11:58:53;;;;;;;4.10;2.92;;;21.40;33.70;;;;;;5012081;28;20065;-51
2021/08/24 12:01:28;;;;;;;4.60;2.55;;;21.60;34.10;;;;;;5011663;28;20073;-44
2021/08/24 12:03:58;;;;;;;6.40;3.00;;;21.60;33.80;;;;;;5011754;28;20057;-43
2021/08/24 12:06:27;;;;;;;5.50;3.45;;;21.80;33.40;;;;;;5010867;28;20029;-46
2021/08/24 12:08:57;;;;;;;4.72;2.58;;;22.00;33.90;;;;;;5031112;28;20048;-41
2021/08/24 12:11:45;;;;;;;5.88;3.60;;;22.10;34.10;;;;;;5031371;28;20033;-42
2021/08/24 12:14:38;;;;;;;5.97;3.05;;;22.10;34.10;;;;;;5021883;28;20059;-44
2021/08/24 12:17:27;;;;;;;4.85;3.20;;;22.10;34.20;;;;;;4992151;28;20441;-41
2021/08/24 12:20:05;;;;;;;3.97;2.97;;;21.90;34.90;;;;;;4991982;28;20061;-41
2021/08/24 12:22:33;;;;;;;5.00;3.00;;;21.70;35.90;;;;;;4990281;28;20494;-46
2021/08/24 12:25:09;;;;;;;5.93;3.58;;;21.60;35.60;;;;;;4991956;28;20049;-42
2021/08/24 12:27:43;;;;;;;5.78;3.53;;;21.40;35.90;;;;;;4991903;28;20037;-42
2021/08/24 12:30:17;;;;;;;5.35;3.13;;;21.50;34.90;;;;;;4991952;28;20062;-43
2021/08/24 12:33:09;;;;;;;5.63;3.05;;;21.70;33.80;;;;;;4991744;28;20053;-45
2021/08/24 12:35:42;;;;;;;4.47;3.00;;;21.90;34.90;;;;;;4991816;28;20377;-43
2021/08/24 12:38:29;;;;;;;4.93;2.97;;;22.10;35.20;;;;;;4990992;28;20030;-44
2021/08/24 12:40:55;;;;;;;6.38;3.33;;;21.90;34.50;;;;;;4991708;28;20093;-44
2021/08/24 12:43:40;;;;;;;5.63;2.70;;;21.90;35.60;;;;;;4991699;28;20026;-44
2021/08/24 12:46:18;;;;;;;5.20;3.03;;;21.70;35.90;;;;;;4991879;28;20034;-43
2021/08/24 12:49:15;;;;;;;4.25;2.92;;;21.40;37.30;;;;;;4991659;28;20492;-42
2021/08/24 12:51:45;;;;;;;5.28;3.15;;;21.20;39.50;;;;;;4991011;28;20034;-44
2021/08/24 12:54:12;;;;;;;6.07;3.50;;;21.00;38.60;;;;;;4991533;28;20030;-45
2021/08/24 12:56:47;;;;;;;5.65;3.40;;;20.90;38.50;;;;;;4991865;28;20417;-41
2021/08/24 12:59:37;;;;;;;5.18;3.60;;;21.00;36.70;;;;;;4991249;28;20030;-42
2021/08/24 13:02:26;;;;;;;5.78;3.22;;;21.30;36.00;;;;;;5030915;28;20028;-44
2021/08/24 13:05:12;;;;;;;3.97;2.70;;;21.60;33.70;;;;;;5030722;28;20037;-41
2021/08/24 13:07:46;;;;;;;4.60;3.03;;;21.70;34.00;;;;;;5029989;28;20488;-45
2021/08/24 13:10:32;;;;;;;4.93;3.30;;;21.90;33.20;;;;;;5030872;28;20052;-44
2021/08/24 13:12:59;;;;;;;6.13;3.70;;;21.90;34.20;;;;;;5030658;28;20029;-44
2021/08/24 13:15:33;;;;;;;4.38;2.88;;;21.70;34.40;;;;;;5030674;28;20125;-44